createdAt,value
2023-01-19T00:01:43.315Z,64.70
2023-01-19T00:04:11.383Z,62.40
2023-01-19T00:06:39.395Z,56.50
2023-01-19T00:09:07.441Z,63.40
2023-01-19T00:11:35.567Z,59.30
2023-01-19T00:14:03.634Z,67.60
2023-01-19T00:16:31.859Z,59.00
2023-01-19T00:18:59.922Z,62.40
2023-01-19T00:21:27.989Z,61.50
2023-01-19T00:23:56.055Z,56.60
2023-01-19T00:26:24.287Z,60.60
2023-01-19T00:28:53.911Z,59.60
2023-01-19T00:31:22.138Z,61.30
2023-01-19T00:33:51.627Z,72.00
2023-01-19T00:36:19.964Z,63.60
2023-01-19T00:38:48.235Z,62.20
2023-01-19T00:41:17.491Z,64.00
2023-01-19T00:43:45.408Z,87.20
2023-01-19T00:46:13.537Z,86.00
2023-01-19T00:48:41.640Z,93.90
2023-01-19T00:51:09.672Z,101.90
2023-01-19T00:53:37.625Z,92.50
2023-01-19T00:56:06.453Z,93.10
2023-01-19T00:58:34.493Z,94.50
2023-01-19T01:01:04.985Z,87.50
2023-01-19T01:03:33.261Z,79.50
2023-01-19T01:06:01.316Z,86.60
2023-01-19T01:14:58.080Z,83.40
2023-01-19T01:17:26.327Z,78.50
2023-01-19T01:19:54.543Z,74.80
2023-01-19T01:22:22.498Z,70.80
2023-01-19T01:24:50.704Z,69.60
2023-01-19T01:27:18.746Z,71.30
2023-01-19T01:29:46.684Z,70.60
2023-01-19T01:32:15.923Z,69.20
2023-01-19T01:34:44.008Z,62.40
2023-01-19T01:37:11.954Z,66.80
2023-01-19T01:39:39.957Z,58.90
2023-01-19T01:42:20.395Z,63.50
2023-01-19T01:45:00.956Z,64.10
2023-01-19T01:47:52.448Z,64.00
2023-01-19T01:50:29.019Z,67.30
2023-01-19T01:53:08.231Z,68.90
2023-01-19T01:55:45.135Z,69.60
2023-01-19T01:58:14.148Z,68.30
2023-01-19T02:01:01.404Z,64.80
2023-01-19T02:03:29.659Z,65.50
2023-01-19T02:06:00.470Z,66.40
2023-01-19T02:09:17.138Z,70.50
2023-01-19T02:12:04.077Z,71.40
2023-01-19T02:14:32.140Z,74.80
2023-01-19T02:17:00.181Z,72.20
2023-01-19T02:19:42.723Z,66.20
2023-01-19T02:22:26.886Z,61.80
2023-01-19T02:24:55.074Z,65.60
2023-01-19T02:27:23.206Z,58.60
2023-01-19T02:29:51.207Z,60.30
2023-01-19T02:32:19.272Z,61.60
2023-01-19T02:34:47.276Z,48.90
2023-01-19T02:37:16.006Z,52.50
2023-01-19T02:40:03.704Z,52.50
2023-01-19T02:42:45.587Z,50.20
2023-01-19T02:45:15.693Z,53.80
2023-01-19T02:47:49.490Z,50.30
2023-01-19T02:50:32.869Z,51.30
2023-01-19T02:53:30.258Z,50.10
2023-01-19T02:56:26.341Z,49.20
2023-01-19T02:59:48.412Z,52.10
2023-01-19T03:02:59.173Z,53.90
2023-01-19T03:06:14.595Z,53.50
2023-01-19T03:09:13.798Z,50.50
2023-01-19T03:11:48.247Z,44.20
2023-01-19T03:14:22.268Z,48.20
2023-01-19T03:17:02.118Z,51.20
2023-01-19T03:19:38.464Z,49.10
2023-01-19T03:22:18.589Z,54.20
2023-01-19T03:24:48.068Z,54.60
2023-01-19T03:27:26.521Z,54.40
2023-01-19T03:30:03.181Z,48.80
2023-01-19T03:32:44.846Z,48.60
2023-01-19T03:35:15.088Z,49.20
2023-01-19T03:37:47.349Z,53.70
2023-01-19T03:40:16.422Z,49.50
2023-01-19T03:42:44.709Z,47.10
2023-01-19T03:45:14.048Z,49.40
2023-01-19T03:47:42.003Z,45.80
2023-01-19T03:50:17.249Z,44.00
2023-01-19T03:52:45.199Z,50.40
2023-01-19T03:55:13.889Z,45.30
2023-01-19T03:57:41.957Z,45.40
2023-01-19T04:00:11.583Z,46.40
2023-01-19T04:02:39.822Z,42.10
2023-01-19T04:05:10.649Z,43.30
2023-01-19T04:07:38.700Z,47.90
2023-01-19T04:10:12.694Z,42.60
2023-01-19T04:12:43.090Z,46.20
2023-01-19T04:15:12.137Z,42.90
2023-01-19T04:17:40.517Z,48.10
2023-01-19T04:20:10.056Z,48.30
2023-01-19T04:22:39.303Z,55.20
2023-01-19T04:25:08.672Z,55.30
2023-01-19T04:27:37.253Z,52.00
2023-01-19T04:30:06.394Z,52.60
2023-01-19T04:32:34.783Z,58.10
2023-01-19T04:35:04.593Z,56.30
2023-01-19T04:37:32.824Z,56.60
2023-01-19T04:40:01.006Z,47.70
2023-01-19T04:42:29.080Z,45.80
2023-01-19T04:44:57.177Z,46.60
2023-01-19T04:47:25.348Z,35.90
2023-01-19T04:49:53.303Z,42.50
2023-01-19T04:52:21.348Z,43.40
2023-01-19T04:54:49.364Z,36.60
2023-01-19T04:57:17.284Z,40.60
2023-01-19T04:59:48.233Z,43.00
2023-01-19T05:02:18.981Z,41.50
2023-01-19T05:04:47.202Z,41.80
2023-01-19T05:07:18.488Z,37.80
2023-01-19T05:09:47.814Z,37.50
2023-01-19T05:12:16.263Z,39.90
2023-01-19T05:14:44.310Z,34.70
2023-01-19T05:17:12.592Z,34.80
2023-01-19T05:19:40.533Z,37.60
2023-01-19T05:22:08.868Z,38.20
2023-01-19T05:24:36.883Z,35.90
2023-01-19T05:27:04.792Z,35.00
2023-01-19T05:29:32.978Z,33.80
2023-01-19T05:32:01.838Z,34.10
2023-01-19T05:34:29.861Z,36.90
2023-01-19T05:36:57.841Z,32.60
2023-01-19T05:39:26.936Z,43.50
2023-01-19T05:41:55.003Z,35.70
2023-01-19T05:44:23.166Z,42.10
2023-01-19T05:46:51.778Z,48.40
2023-01-19T05:49:19.807Z,49.20
2023-01-19T05:51:47.808Z,46.10
2023-01-19T05:54:16.072Z,43.10
2023-01-19T05:56:44.445Z,43.50
2023-01-19T05:59:13.228Z,45.70
2023-01-19T06:01:42.013Z,60.10
2023-01-19T06:04:10.066Z,50.80
2023-01-19T06:06:38.059Z,44.60
2023-01-19T06:09:07.927Z,40.90
2023-01-19T06:11:35.834Z,44.10
2023-01-19T06:14:03.900Z,46.70
2023-01-19T06:16:31.989Z,48.80
2023-01-19T06:19:00.384Z,44.30
2023-01-19T06:21:28.571Z,41.30
2023-01-19T06:23:56.592Z,40.30
2023-01-19T06:26:25.600Z,42.50
2023-01-19T06:28:53.651Z,42.50
2023-01-19T06:31:21.825Z,40.30
2023-01-19T06:33:52.357Z,40.10
2023-01-19T06:36:21.498Z,41.20
2023-01-19T06:38:49.425Z,41.90
2023-01-19T06:41:17.355Z,35.40
2023-01-19T06:43:45.274Z,32.30
2023-01-19T06:46:13.990Z,32.90
2023-01-19T06:48:41.959Z,33.30
2023-01-19T06:51:10.541Z,33.50
2023-01-19T06:53:39.218Z,30.40
2023-01-19T06:56:09.031Z,32.70
2023-01-19T06:58:37.457Z,30.20
2023-01-19T07:01:07.947Z,30.30
2023-01-19T07:03:38.163Z,33.70
2023-01-19T07:06:09.430Z,37.80
2023-01-19T07:08:39.968Z,38.20
2023-01-19T07:11:26.141Z,28.80
2023-01-19T07:13:59.588Z,30.80
2023-01-19T07:16:27.828Z,32.10
2023-01-19T07:18:56.255Z,33.60
2023-01-19T07:21:29.188Z,33.70
2023-01-19T07:24:00.387Z,36.80
2023-01-19T07:26:28.580Z,33.20
2023-01-19T07:28:56.582Z,32.10
2023-01-19T07:31:24.808Z,31.30
2023-01-19T07:33:53.053Z,31.30
2023-01-19T07:36:21.175Z,38.80
2023-01-19T07:38:49.302Z,37.30
2023-01-19T07:41:17.328Z,36.70
2023-01-19T07:43:45.748Z,34.90
2023-01-19T07:46:13.893Z,39.00
2023-01-19T07:48:42.111Z,38.80
2023-01-19T07:51:12.998Z,39.90
2023-01-19T07:53:42.204Z,40.90
2023-01-19T07:56:12.396Z,35.90
2023-01-19T07:58:40.572Z,40.80
2023-01-19T08:01:13.640Z,42.50
2023-01-19T08:03:42.632Z,39.30
2023-01-19T08:06:21.838Z,33.90
2023-01-19T08:08:50.558Z,34.20
2023-01-19T08:11:37.186Z,35.80
2023-01-19T08:14:07.765Z,34.10
2023-01-19T08:19:07.227Z,34.20
2023-01-19T08:21:36.220Z,35.50
2023-01-19T08:24:04.585Z,29.20
2023-01-19T08:26:37.517Z,30.40
2023-01-19T08:29:09.350Z,31.20
2023-01-19T08:31:38.464Z,33.40
2023-01-19T08:34:06.693Z,31.40
2023-01-19T08:36:35.726Z,31.80
2023-01-19T08:39:25.074Z,35.20
2023-01-19T08:41:57.629Z,31.40
2023-01-19T08:44:25.726Z,34.10
2023-01-19T08:46:54.929Z,32.50
2023-01-19T08:49:22.994Z,31.10
2023-01-19T08:51:51.048Z,37.20
2023-01-19T08:54:20.317Z,36.40
2023-01-19T08:56:50.334Z,39.80
2023-01-19T08:59:18.355Z,40.20
2023-01-19T09:01:46.522Z,35.30
2023-01-19T09:04:14.645Z,39.80
2023-01-19T09:06:42.644Z,42.30
2023-01-19T09:09:11.954Z,39.60
2023-01-19T09:11:40.044Z,35.60
2023-01-19T09:14:08.596Z,38.80
2023-01-19T09:16:36.665Z,40.40
2023-01-19T09:19:04.768Z,44.20
2023-01-19T09:21:32.788Z,38.70
2023-01-19T09:24:01.028Z,43.40
2023-01-19T09:26:29.927Z,41.70
2023-01-19T09:29:00.031Z,41.40
2023-01-19T09:31:28.271Z,41.80
2023-01-19T09:33:56.692Z,36.80
2023-01-19T09:36:24.976Z,40.30
2023-01-19T09:38:53.042Z,38.70
2023-01-19T09:41:22.815Z,43.00
2023-01-19T09:44:00.082Z,43.50
2023-01-19T09:46:41.733Z,38.30
2023-01-19T09:49:31.633Z,43.60
2023-01-19T09:51:59.942Z,39.60
2023-01-19T09:54:58.272Z,37.90
2023-01-19T09:57:30.357Z,45.30
2023-01-19T09:59:59.922Z,37.60
2023-01-19T10:02:41.188Z,37.70
2023-01-19T10:05:29.197Z,39.10
2023-01-19T10:08:20.192Z,40.70
2023-01-19T10:10:57.732Z,37.10
2023-01-19T10:13:49.653Z,36.00
2023-01-19T10:16:43.782Z,41.10
2023-01-19T10:19:26.222Z,36.30
2023-01-19T10:21:55.756Z,39.10
2023-01-19T10:24:38.601Z,41.30
2023-01-19T10:27:17.970Z,41.20
2023-01-19T10:29:46.670Z,35.60
2023-01-19T10:32:26.171Z,41.40
2023-01-19T10:34:54.985Z,36.10
2023-01-19T10:37:37.914Z,34.90
2023-01-19T10:40:12.079Z,34.80
2023-01-19T10:42:42.234Z,34.20
2023-01-19T10:45:17.751Z,38.50
2023-01-19T10:47:47.551Z,28.60
2023-01-19T10:50:31.091Z,30.20
2023-01-19T10:53:03.811Z,28.20
2023-01-19T10:55:40.303Z,32.40
2023-01-19T10:58:28.373Z,31.00
2023-01-19T11:01:13.697Z,33.10
2023-01-19T11:03:41.892Z,33.20
2023-01-19T11:06:16.123Z,33.90
2023-01-19T11:08:46.788Z,32.40
2023-01-19T11:11:14.770Z,29.70
2023-01-19T11:13:43.961Z,32.90
2023-01-19T11:16:31.874Z,36.00
2023-01-19T11:19:02.168Z,34.60
2023-01-19T11:21:31.953Z,38.50
2023-01-19T11:24:09.377Z,40.80
2023-01-19T11:26:50.330Z,38.50
2023-01-19T11:29:24.495Z,37.60
2023-01-19T11:31:54.701Z,39.50
2023-01-19T11:34:32.945Z,41.00
2023-01-19T11:37:21.128Z,34.40
2023-01-19T11:39:58.598Z,34.60
2023-01-19T11:42:30.144Z,38.60
2023-01-19T11:44:59.528Z,36.90
2023-01-19T11:47:52.678Z,35.70
2023-01-19T11:53:29.318Z,37.10
2023-01-19T11:56:06.053Z,35.10
2023-01-19T11:58:39.658Z,33.00
2023-01-19T12:01:24.972Z,31.10
2023-01-19T12:04:17.569Z,31.90
2023-01-19T12:06:50.227Z,32.50
2023-01-19T12:12:08.285Z,29.20
2023-01-19T12:15:29.737Z,31.00
2023-01-19T12:18:01.075Z,30.60
2023-01-19T12:20:35.516Z,28.10
2023-01-19T12:23:28.303Z,29.20
2023-01-19T12:26:05.992Z,33.30
2023-01-19T12:28:41.844Z,29.00
2023-01-19T12:31:10.171Z,27.20
2023-01-19T12:33:39.984Z,31.70
2023-01-19T12:36:14.323Z,32.20
2023-01-19T12:38:52.898Z,29.40
2023-01-19T12:41:40.214Z,35.00
2023-01-19T12:44:16.057Z,27.60
2023-01-19T12:47:10.335Z,31.60
2023-01-19T12:49:38.279Z,29.70
2023-01-19T12:52:41.208Z,27.40
2023-01-19T12:55:15.009Z,25.90
2023-01-19T12:58:17.815Z,27.90
2023-01-19T13:00:48.847Z,26.50
2023-01-19T13:03:19.948Z,29.80
2023-01-19T13:05:52.960Z,26.30
2023-01-19T13:08:28.313Z,26.70
2023-01-19T13:11:06.138Z,28.20
2023-01-19T13:13:49.671Z,26.10
2023-01-19T13:16:25.124Z,24.40
2023-01-19T13:19:16.326Z,25.80
2023-01-19T13:21:47.658Z,25.80
2023-01-19T13:24:16.724Z,30.90
2023-01-19T13:26:51.572Z,29.50
2023-01-19T13:29:33.168Z,32.20
2023-01-19T13:32:13.757Z,27.80
2023-01-19T13:34:59.364Z,33.90
2023-01-19T13:37:35.865Z,29.30
2023-01-19T13:40:04.560Z,32.00
2023-01-19T13:42:40.611Z,34.20
2023-01-19T13:45:34.278Z,32.40
2023-01-19T13:48:07.114Z,29.50
2023-01-19T13:50:40.252Z,30.40
2023-01-19T13:53:20.787Z,31.70
2023-01-19T13:55:49.029Z,37.40
2023-01-19T13:58:22.425Z,36.00
2023-01-19T14:00:50.967Z,35.60
2023-01-19T14:03:25.362Z,36.10
2023-01-19T14:05:55.531Z,36.50
2023-01-19T14:08:25.797Z,39.30
2023-01-19T14:10:55.678Z,38.40
2023-01-19T14:13:27.018Z,36.50
2023-01-19T14:16:17.492Z,37.80
2023-01-19T14:18:45.475Z,34.00
2023-01-19T14:21:15.570Z,37.70
2023-01-19T14:23:55.232Z,35.90
2023-01-19T14:26:51.572Z,40.20
2023-01-19T14:29:34.116Z,35.60
2023-01-19T14:32:25.406Z,36.20
2023-01-19T14:35:04.688Z,38.30
2023-01-19T14:37:35.658Z,38.20
2023-01-19T14:40:24.667Z,36.00
2023-01-19T14:42:54.963Z,36.20
2023-01-19T14:45:39.518Z,39.50
2023-01-19T14:48:18.211Z,39.80
2023-01-19T14:51:01.970Z,36.40
2023-01-19T14:53:37.126Z,52.40
2023-01-19T14:56:06.910Z,89.70
2023-01-19T14:58:35.864Z,72.20
2023-01-19T15:01:04.772Z,65.60
2023-01-19T15:03:44.224Z,67.20
2023-01-19T15:06:20.631Z,78.40
2023-01-19T15:08:50.443Z,87.90
2023-01-19T15:11:32.941Z,92.20
2023-01-19T15:14:02.178Z,91.60
2023-01-19T15:16:33.062Z,87.00
2023-01-19T15:19:01.285Z,133.60
2023-01-19T15:21:29.502Z,111.50
2023-01-19T15:23:58.611Z,82.20
2023-01-19T15:26:27.539Z,60.10
2023-01-19T15:28:56.691Z,46.30
2023-01-19T15:31:26.693Z,49.90
2023-01-19T15:33:54.901Z,49.90
2023-01-19T15:36:24.403Z,72.10
2023-01-19T15:38:57.427Z,66.30
2023-01-19T15:41:30.032Z,65.10
2023-01-19T15:46:29.715Z,64.70
2023-01-19T15:48:57.901Z,71.20
2023-01-19T15:51:28.098Z,62.30
2023-01-19T15:53:56.825Z,75.50
2023-01-19T15:56:30.304Z,69.80
2023-01-19T15:58:59.352Z,106.80
2023-01-19T16:01:34.020Z,115.30
2023-01-19T16:04:05.733Z,159.90
2023-01-19T16:06:34.370Z,158.30
2023-01-19T16:09:04.107Z,192.20
2023-01-19T16:11:35.009Z,187.00
2023-01-19T16:14:03.035Z,185.20
2023-01-19T16:16:31.210Z,174.80
2023-01-19T16:18:59.411Z,277.90
2023-01-19T16:21:27.652Z,232.50
2023-01-19T16:23:58.583Z,269.40
2023-01-19T16:26:35.115Z,223.10
2023-01-19T16:29:09.953Z,252.90
2023-01-19T16:31:40.619Z,286.80
2023-01-19T16:34:10.816Z,340.80
2023-01-19T16:36:43.294Z,372.50
2023-01-19T16:39:38.002Z,257.90
2023-01-19T16:42:08.181Z,179.80
2023-01-19T16:44:38.320Z,149.70
2023-01-19T16:47:06.527Z,163.30
2023-01-19T16:49:34.651Z,163.30
2023-01-19T16:52:04.026Z,195.10
2023-01-19T16:54:33.270Z,220.00
2023-01-19T16:57:02.017Z,206.10
2023-01-19T16:59:31.655Z,190.20
2023-01-19T17:02:00.396Z,173.40
2023-01-19T17:04:29.702Z,157.70
2023-01-19T17:06:58.048Z,162.90
2023-01-19T17:09:26.306Z,181.20
2023-01-19T17:11:54.745Z,182.30
2023-01-19T17:14:23.053Z,171.70
2023-01-19T17:16:51.637Z,163.50
2023-01-19T17:19:22.309Z,163.50
2023-01-19T17:21:51.080Z,187.00
2023-01-19T17:24:19.635Z,205.80
2023-01-19T17:26:48.955Z,220.20
2023-01-19T17:29:17.824Z,215.20
2023-01-19T17:31:46.949Z,244.40
2023-01-19T17:34:15.128Z,310.20
2023-01-19T17:36:43.396Z,245.10
2023-01-19T17:39:14.959Z,483.00
2023-01-19T17:41:43.060Z,380.80
2023-01-19T17:44:11.200Z,316.30
2023-01-19T17:46:39.156Z,339.60
2023-01-19T17:49:08.290Z,380.60
2023-01-19T17:51:36.647Z,341.90
2023-01-19T17:54:05.196Z,311.20
2023-01-19T17:56:36.938Z,314.50
2023-01-19T17:59:08.270Z,274.50
2023-01-19T18:01:40.123Z,369.30
2023-01-19T18:04:09.397Z,383.30
2023-01-19T18:06:38.564Z,421.40
2023-01-19T18:09:07.583Z,456.40
2023-01-19T18:11:35.999Z,481.50
2023-01-19T18:14:05.651Z,466.60
2023-01-19T18:16:34.842Z,447.40
2023-01-19T18:19:03.026Z,398.50
2023-01-19T18:21:31.016Z,431.30
2023-01-19T18:24:04.826Z,437.70
2023-01-19T18:26:35.097Z,434.80
2023-01-19T18:29:03.517Z,420.90
2023-01-19T18:31:31.849Z,373.90
2023-01-19T18:34:00.188Z,316.80
2023-01-19T18:36:28.547Z,286.70
2023-01-19T18:38:56.760Z,221.10
2023-01-19T18:41:25.124Z,167.70
2023-01-19T18:43:59.742Z,132.40
2023-01-19T18:46:28.372Z,121.40
2023-01-19T18:48:56.679Z,130.10
2023-01-19T18:51:25.185Z,136.70
2023-01-19T18:53:53.479Z,121.20
2023-01-19T18:56:21.728Z,144.80
2023-01-19T18:58:57.447Z,167.70
2023-01-19T19:01:32.662Z,170.30
2023-01-19T19:04:02.013Z,148.90
2023-01-19T19:06:30.881Z,146.20
2023-01-19T19:09:01.867Z,138.90
2023-01-19T19:11:31.282Z,135.30
2023-01-19T19:14:02.217Z,124.50
2023-01-19T19:16:33.997Z,135.90
2023-01-19T19:19:03.689Z,127.70
2023-01-19T19:21:32.304Z,115.30
2023-01-19T19:26:40.934Z,141.00
2023-01-19T19:29:09.362Z,139.50
2023-01-19T19:31:37.728Z,123.00
2023-01-19T19:34:11.160Z,120.50
2023-01-19T19:36:40.364Z,127.70
2023-01-19T19:39:08.852Z,121.00
2023-01-19T19:41:40.577Z,232.30
2023-01-19T19:44:16.161Z,296.10
2023-01-19T19:46:44.849Z,266.90
2023-01-19T19:49:17.385Z,245.10
2023-01-19T19:51:48.970Z,317.70
2023-01-19T19:54:17.981Z,346.00
2023-01-19T19:56:52.158Z,251.60
2023-01-19T19:59:29.877Z,178.30
2023-01-19T20:02:03.980Z,136.20
2023-01-19T20:07:03.891Z,120.70
2023-01-19T20:09:42.848Z,133.10
2023-01-19T20:12:28.215Z,134.80
2023-01-19T20:15:25.793Z,108.60
2023-01-19T20:18:02.344Z,111.50
2023-01-19T20:20:40.776Z,117.70
2023-01-19T20:23:14.545Z,137.90
2023-01-19T20:25:47.065Z,146.20
2023-01-19T20:28:20.129Z,149.80
2023-01-19T20:30:57.827Z,178.50
2023-01-19T20:33:27.744Z,145.10
2023-01-19T20:35:58.406Z,155.00
2023-01-19T20:38:44.470Z,149.80
2023-01-19T20:41:17.648Z,158.50
2023-01-19T20:45:25.925Z,163.00
2023-01-19T20:48:24.988Z,221.10
2023-01-19T20:52:17.784Z,321.30
2023-01-19T20:54:56.005Z,295.70
2023-01-19T21:00:30.390Z,178.70
2023-01-19T21:03:07.903Z,172.90
2023-01-19T21:05:41.251Z,163.80
2023-01-19T21:08:17.419Z,131.10
2023-01-19T21:11:19.531Z,120.40
2023-01-19T21:13:57.276Z,105.60
2023-01-19T21:17:06.764Z,99.80
2023-01-19T21:21:04.187Z,98.30
2023-01-19T21:23:50.961Z,101.20
2023-01-19T21:26:21.199Z,110.90
2023-01-19T21:28:50.851Z,109.70
2023-01-19T21:31:28.111Z,102.80
2023-01-19T21:34:08.288Z,107.50
2023-01-19T21:36:39.994Z,105.50
2023-01-19T21:39:17.237Z,108.40
2023-01-19T21:41:51.244Z,107.60
2023-01-19T21:44:22.034Z,109.60
2023-01-19T21:46:58.485Z,100.20
2023-01-19T21:49:38.192Z,100.90
2023-01-19T21:52:07.208Z,100.20
2023-01-19T21:54:44.664Z,96.70
2023-01-19T21:57:15.236Z,106.20
2023-01-19T21:59:43.395Z,100.20
2023-01-19T22:02:14.321Z,91.80
2023-01-19T22:04:43.020Z,94.40
2023-01-19T22:07:13.488Z,92.90
2023-01-19T22:09:41.740Z,94.10
2023-01-19T22:12:11.091Z,99.80
2023-01-19T22:14:39.324Z,88.00
2023-01-19T22:17:07.346Z,113.40
2023-01-19T22:19:35.252Z,123.90
2023-01-19T22:22:03.350Z,114.40
2023-01-19T22:24:31.367Z,105.10
2023-01-19T22:26:59.336Z,110.30
2023-01-19T22:29:27.516Z,104.00
2023-01-19T22:31:55.436Z,96.20
2023-01-19T22:34:23.380Z,167.50
2023-01-19T22:36:51.412Z,252.40
2023-01-19T22:39:19.366Z,191.50
2023-01-19T22:41:47.487Z,163.40
2023-01-19T22:44:20.365Z,228.60
2023-01-19T22:46:50.024Z,210.20
2023-01-19T22:49:18.560Z,219.50
2023-01-19T22:51:46.772Z,220.00
2023-01-19T22:54:15.218Z,192.70
2023-01-19T22:56:43.298Z,119.40
2023-01-19T22:59:11.421Z,101.20
2023-01-19T23:01:43.075Z,133.10
2023-01-19T23:04:14.673Z,121.90
2023-01-19T23:06:43.922Z,117.30
2023-01-19T23:09:14.375Z,120.70
2023-01-19T23:11:50.394Z,103.60
2023-01-19T23:14:22.020Z,117.00
2023-01-19T23:16:50.381Z,142.60
2023-01-19T23:19:19.061Z,165.10
2023-01-19T23:21:51.192Z,197.50
2023-01-19T23:24:19.383Z,166.00
2023-01-19T23:26:50.025Z,176.90
2023-01-19T23:29:18.340Z,142.20
2023-01-19T23:31:48.894Z,143.20
2023-01-19T23:34:17.456Z,179.20
2023-01-19T23:36:45.627Z,180.00
2023-01-19T23:39:20.847Z,197.90
2023-01-19T23:41:50.245Z,222.70
2023-01-19T23:44:18.817Z,242.60
2023-01-19T23:46:47.157Z,233.40
2023-01-19T23:49:15.335Z,223.90
2023-01-19T23:51:43.377Z,256.10
2023-01-19T23:54:12.639Z,244.60
2023-01-19T23:56:43.434Z,244.90
2023-01-19T23:59:16.644Z,285.40
